Time;durP1;ratioP1;P1;durP2;ratioP2;P2;SDS_P1;SDS_P2;PMS_P1;PMS_P2;Temp;Humidity;BMP_temperature;BMP_pressure;BME280_temperature;BME280_humidity;BME280_pressure;Samples;Min_cycle;Max_cycle;Signal;HPM_P1;HPM_P2
2021/12/09 00:00:05;;;;;;;17.30;8.23;;;5.10;99.90;;;;;;5085762;28;20100;-86
2021/12/09 00:02:33;;;;;;;15.23;7.90;;;5.00;99.90;;;;;;5084731;28;20133;-85
2021/12/09 00:04:58;;;;;;;17.37;8.00;;;5.00;99.90;;;;;;5086179;28;20443;-85
2021/12/09 00:07:25;;;;;;;16.17;7.83;;;5.00;99.90;;;;;;5087663;28;20063;-85
2021/12/09 00:09:51;;;;;;;14.70;7.73;;;5.00;99.90;;;;;;5084450;28;20023;-85
2021/12/09 00:12:17;;;;;;;14.53;7.43;;;5.00;99.90;;;;;;5085623;28;20039;-85
2021/12/09 00:14:43;;;;;;;12.90;6.80;;;5.00;99.90;;;;;;5085010;28;20016;-86
2021/12/09 00:17:10;;;;;;;16.90;7.77;;;5.00;99.90;;;;;;5085088;28;20038;-85
2021/12/09 00:19:38;;;;;;;16.00;7.70;;;4.90;99.90;;;;;;5081229;28;20027;-86
2021/12/09 00:22:06;;;;;;;14.63;8.10;;;4.90;99.90;;;;;;5079193;28;20016;-85
2021/12/09 00:24:32;;;;;;;18.43;7.47;;;4.90;99.90;;;;;;5095124;28;20019;-85
2021/12/09 00:26:57;;;;;;;19.10;7.30;;;4.90;99.90;;;;;;5076828;28;20038;-85
2021/12/09 00:29:24;;;;;;;16.63;7.80;;;4.90;99.90;;;;;;5076577;28;20088;-86
2021/12/09 00:31:50;;;;;;;14.60;7.00;;;4.90;99.90;;;;;;5075676;28;20106;-85
2021/12/09 00:34:19;;;;;;;14.60;7.20;;;4.90;99.90;;;;;;5076033;28;20023;-85
2021/12/09 00:36:57;;;;;;;16.87;7.40;;;4.90;99.90;;;;;;5093637;28;20055;-85
2021/12/09 00:39:23;;;;;;;16.83;7.63;;;4.90;99.90;;;;;;5076993;28;20368;-85
2021/12/09 00:41:49;;;;;;;18.77;7.80;;;5.00;99.90;;;;;;5075387;28;20103;-85
2021/12/09 00:44:15;;;;;;;12.87;6.70;;;4.90;99.90;;;;;;5094117;28;20486;-85
2021/12/09 00:46:40;;;;;;;13.97;7.10;;;4.90;99.90;;;;;;5076211;28;20064;-85
2021/12/09 00:49:07;;;;;;;13.87;6.67;;;4.90;99.90;;;;;;5076614;28;20024;-85
2021/12/09 00:51:34;;;;;;;13.97;6.80;;;4.90;99.90;;;;;;5093511;28;20020;-84
2021/12/09 00:53:59;;;;;;;15.03;6.90;;;4.80;99.90;;;;;;5076125;28;20085;-84
2021/12/09 00:56:26;;;;;;;15.70;7.50;;;4.80;99.90;;;;;;5110410;28;20452;-85
2021/12/09 00:58:51;;;;;;;12.27;6.60;;;4.70;99.90;;;;;;5113978;28;20103;-85
2021/12/09 01:01:17;;;;;;;12.37;6.43;;;4.70;99.90;;;;;;5096792;28;20479;-85
2021/12/09 01:03:44;;;;;;;17.37;7.70;;;4.60;99.90;;;;;;5113849;28;20023;-85
2021/12/09 01:06:10;;;;;;;14.27;6.70;;;4.60;99.90;;;;;;5096290;28;20035;-85
2021/12/09 01:08:37;;;;;;;16.13;6.73;;;4.50;99.90;;;;;;5113950;28;20038;-85
2021/12/09 01:11:04;;;;;;;17.70;7.10;;;4.60;99.90;;;;;;5096323;28;20028;-85
2021/12/09 01:13:30;;;;;;;9.93;5.73;;;4.50;99.90;;;;;;5095831;28;20172;-85
2021/12/09 01:15:56;;;;;;;14.00;6.93;;;4.50;99.90;;;;;;5113530;28;20106;-85
2021/12/09 01:18:21;;;;;;;16.73;7.20;;;4.50;99.90;;;;;;5114511;28;20027;-85
2021/12/09 01:20:47;;;;;;;14.67;7.13;;;4.50;99.90;;;;;;5095112;28;20024;-85
2021/12/09 01:23:13;;;;;;;14.00;6.10;;;4.50;99.90;;;;;;5113665;28;20085;-85
2021/12/09 01:25:39;;;;;;;16.33;6.10;;;4.50;99.90;;;;;;5113080;28;20035;-85
2021/12/09 01:28:07;;;;;;;14.63;6.17;;;4.50;99.90;;;;;;5095848;28;20389;-85
2021/12/09 01:30:34;;;;;;;11.90;5.63;;;4.50;99.90;;;;;;5113404;28;20058;-85
2021/12/09 01:33:00;;;;;;;11.07;5.60;;;4.50;99.90;;;;;;5113169;28;20024;-85
2021/12/09 01:35:28;;;;;;;12.37;5.77;;;4.40;99.90;;;;;;5096025;28;20028;-85
2021/12/09 01:37:58;;;;;;;17.13;6.13;;;4.40;99.90;;;;;;5099723;28;20138;-85
2021/12/09 01:40:26;;;;;;;13.00;5.57;;;4.40;99.90;;;;;;5100037;28;20023;-85
2021/12/09 01:42:53;;;;;;;12.73;5.53;;;4.40;99.90;;;;;;5099502;28;20039;-85
2021/12/09 01:45:19;;;;;;;11.87;5.60;;;4.40;99.90;;;;;;5100243;28;20043;-85
2021/12/09 01:47:45;;;;;;;10.37;5.57;;;4.40;99.90;;;;;;5099786;28;20047;-85
2021/12/09 01:50:12;;;;;;;10.97;5.47;;;4.50;99.90;;;;;;5100163;28;20371;-85
2021/12/09 01:52:38;;;;;;;15.47;5.93;;;4.50;99.90;;;;;;5117646;28;20026;-84
2021/12/09 01:55:06;;;;;;;16.97;5.97;;;4.50;99.90;;;;;;5099376;28;20118;-85
2021/12/09 01:57:31;;;;;;;12.23;5.50;;;4.40;99.90;;;;;;5100131;28;20034;-84
2021/12/09 01:59:57;;;;;;;10.37;5.27;;;4.40;99.90;;;;;;5099323;28;20591;-86
2021/12/09 02:02:23;;;;;;;11.20;5.40;;;4.30;99.90;;;;;;5099764;28;20020;-86
2021/12/09 02:04:49;;;;;;;13.77;4.57;;;4.40;99.90;;;;;;5115975;28;20016;-86
2021/12/09 02:07:15;;;;;;;15.43;4.40;;;4.40;99.90;;;;;;5100073;28;20073;-86
2021/12/09 02:09:40;;;;;;;12.67;4.73;;;4.30;99.90;;;;;;5117465;28;20099;-84
2021/12/09 02:12:10;;;;;;;12.37;4.77;;;4.30;99.90;;;;;;5116972;28;20067;-85
2021/12/09 02:14:37;;;;;;;9.13;4.53;;;4.30;99.90;;;;;;5099362;28;20055;-85
2021/12/09 02:17:03;;;;;;;15.33;4.43;;;4.30;99.90;;;;;;5099180;28;20028;-85
2021/12/09 02:19:29;;;;;;;10.37;3.97;;;4.20;99.90;;;;;;5099313;28;20028;-85
2021/12/09 02:21:55;;;;;;;9.53;4.20;;;4.20;99.90;;;;;;5096465;28;20024;-85
2021/12/09 02:24:21;;;;;;;7.63;3.80;;;4.30;99.90;;;;;;5078414;28;20020;-85
2021/12/09 02:26:49;;;;;;;12.97;5.47;;;4.20;99.90;;;;;;5097645;28;20027;-85
2021/12/09 02:29:16;;;;;;;8.77;4.30;;;4.20;99.90;;;;;;5099442;28;20590;-86
2021/12/09 02:31:42;;;;;;;12.30;4.50;;;4.10;99.90;;;;;;5098692;28;20024;-84
2021/12/09 02:34:10;;;;;;;8.37;4.40;;;4.10;99.90;;;;;;5099104;28;20188;-85
2021/12/09 02:36:39;;;;;;;8.93;5.23;;;4.10;99.90;;;;;;5116687;28;20464;-85
2021/12/09 02:39:08;;;;;;;10.60;4.87;;;4.00;99.90;;;;;;5098605;28;20112;-85
2021/12/09 02:41:35;;;;;;;9.53;5.27;;;4.00;99.90;;;;;;5098913;28;20034;-85
2021/12/09 02:44:06;;;;;;;10.57;5.00;;;4.00;99.90;;;;;;5098324;28;20027;-85
2021/12/09 02:46:36;;;;;;;13.40;4.93;;;4.00;99.90;;;;;;5098709;28;20031;-85
2021/12/09 02:49:11;;;;;;;13.67;4.63;;;4.00;99.90;;;;;;5096979;28;20043;-86
2021/12/09 02:51:38;;;;;;;11.73;4.70;;;3.90;99.90;;;;;;5098913;28;20055;-85
2021/12/09 02:54:07;;;;;;;14.27;5.03;;;3.90;99.90;;;;;;5098249;28;20031;-85
2021/12/09 02:56:33;;;;;;;13.37;5.07;;;3.90;99.90;;;;;;5098202;28;20027;-85
2021/12/09 02:58:59;;;;;;;12.07;4.67;;;3.90;99.90;;;;;;5097552;28;20468;-85
2021/12/09 03:01:33;;;;;;;12.10;4.40;;;3.80;99.90;;;;;;5098708;28;20081;-85
2021/12/09 03:04:02;;;;;;;10.43;4.70;;;3.90;99.90;;;;;;5098027;28;20028;-85
2021/12/09 03:06:37;;;;;;;11.73;4.47;;;3.80;99.90;;;;;;5098714;28;20027;-85
2021/12/09 03:09:07;;;;;;;10.67;4.50;;;3.70;99.90;;;;;;5097771;28;20020;-85
2021/12/09 03:11:33;;;;;;;10.43;4.03;;;3.60;99.90;;;;;;5097305;28;20034;-85
2021/12/09 03:13:59;;;;;;;12.87;4.33;;;3.70;99.90;;;;;;5115351;28;20035;-86
2021/12/09 03:16:25;;;;;;;9.03;3.93;;;3.60;99.90;;;;;;5097329;28;20060;-85
2021/12/09 03:19:04;;;;;;;9.63;3.93;;;3.60;99.90;;;;;;5097288;28;20396;-85
2021/12/09 03:21:35;;;;;;;12.87;4.30;;;3.60;99.90;;;;;;5097880;28;20134;-85
2021/12/09 03:24:03;;;;;;;11.23;4.20;;;3.60;99.90;;;;;;5077845;28;20238;-85
2021/12/09 03:26:32;;;;;;;14.13;4.40;;;3.60;99.90;;;;;;5112338;28;20031;-85
2021/12/09 03:29:01;;;;;;;11.97;4.00;;;3.60;99.90;;;;;;5097306;28;20038;-85
2021/12/09 03:31:28;;;;;;;15.13;4.13;;;3.60;99.90;;;;;;5097369;28;20028;-85
2021/12/09 03:33:54;;;;;;;13.03;5.10;;;3.60;99.90;;;;;;5097211;28;20084;-85
2021/12/09 03:36:20;;;;;;;11.10;4.63;;;3.60;99.90;;;;;;5115804;28;20028;-85
2021/12/09 03:38:46;;;;;;;8.63;4.00;;;3.60;99.90;;;;;;5114985;28;20042;-83
2021/12/09 03:41:12;;;;;;;10.50;4.33;;;3.60;99.90;;;;;;5097344;28;20085;-84
2021/12/09 03:43:37;;;;;;;9.53;4.33;;;3.60;99.90;;;;;;5096996;28;20027;-85
2021/12/09 03:46:04;;;;;;;11.57;4.30;;;3.60;99.90;;;;;;5096794;28;20105;-84
2021/12/09 03:48:30;;;;;;;9.53;4.00;;;3.60;99.90;;;;;;5097329;28;20055;-85
2021/12/09 03:50:57;;;;;;;8.73;4.07;;;3.60;99.90;;;;;;5096588;28;20031;-84
2021/12/09 03:53:23;;;;;;;10.17;4.30;;;3.60;99.90;;;;;;5096550;28;20023;-84
2021/12/09 03:55:50;;;;;;;9.23;3.47;;;3.70;99.90;;;;;;5095511;28;20460;-84
2021/12/09 03:58:17;;;;;;;10.13;3.70;;;3.70;99.90;;;;;;5097316;28;20127;-84
2021/12/09 04:00:43;;;;;;;11.43;3.80;;;3.70;99.90;;;;;;5096864;28;20024;-84
2021/12/09 04:03:09;;;;;;;11.20;3.60;;;3.70;99.90;;;;;;5096974;28;20024;-85
2021/12/09 04:05:35;;;;;;;9.53;3.60;;;3.70;99.90;;;;;;5097511;28;20474;-85
2021/12/09 04:08:03;;;;;;;13.53;3.80;;;3.60;99.90;;;;;;5096782;28;20084;-85
2021/12/09 04:10:29;;;;;;;10.57;3.90;;;3.60;99.90;;;;;;5097277;28;20061;-85
2021/12/09 04:12:56;;;;;;;12.00;3.80;;;3.60;99.90;;;;;;5114264;28;20134;-85
2021/12/09 04:15:22;;;;;;;9.07;4.07;;;3.60;99.90;;;;;;5097140;28;20032;-85
2021/12/09 04:17:48;;;;;;;10.57;3.73;;;3.60;99.90;;;;;;5096140;28;20099;-84
2021/12/09 04:20:13;;;;;;;14.17;4.00;;;3.60;99.90;;;;;;5114503;28;20107;-85
2021/12/09 04:22:41;;;;;;;9.77;3.63;;;3.60;99.90;;;;;;5096676;28;20118;-85
2021/12/09 04:25:07;;;;;;;17.00;3.83;;;3.60;99.90;;;;;;5096278;28;20046;-85
2021/12/09 04:27:33;;;;;;;6.70;3.70;;;3.60;99.90;;;;;;5096855;28;20111;-85
2021/12/09 04:29:58;;;;;;;8.93;3.60;;;3.60;99.90;;;;;;5096627;28;20059;-86
2021/12/09 04:32:24;;;;;;;11.03;4.07;;;3.60;99.90;;;;;;5096618;28;20093;-84
2021/12/09 04:34:53;;;;;;;11.40;3.70;;;3.60;99.90;;;;;;5096103;28;20051;-85
2021/12/09 04:37:20;;;;;;;10.50;3.87;;;3.50;99.90;;;;;;5114760;28;20050;-85
2021/12/09 04:39:45;;;;;;;10.53;3.47;;;3.50;99.90;;;;;;5096100;28;20111;-84
2021/12/09 04:42:11;;;;;;;13.03;3.77;;;3.50;99.90;;;;;;5096147;28;20051;-84
2021/12/09 04:44:37;;;;;;;11.33;3.93;;;3.50;99.90;;;;;;5096456;28;20536;-85
2021/12/09 04:47:03;;;;;;;13.60;4.73;;;3.50;99.90;;;;;;5096328;28;20080;-85
2021/12/09 04:49:29;;;;;;;17.10;6.00;;;3.50;99.90;;;;;;5096513;28;20027;-85
2021/12/09 04:51:57;;;;;;;17.33;4.60;;;3.50;99.90;;;;;;5095789;28;20046;-85
2021/12/09 04:54:23;;;;;;;11.97;4.83;;;3.40;99.90;;;;;;5114350;28;20099;-85
2021/12/09 04:56:49;;;;;;;10.13;5.03;;;3.40;99.90;;;;;;5095959;28;20126;-84
2021/12/09 04:59:14;;;;;;;13.93;5.27;;;3.30;99.90;;;;;;5114514;28;20023;-84
2021/12/09 05:01:46;;;;;;;11.53;5.53;;;3.30;99.90;;;;;;5096571;28;20422;-84
2021/12/09 05:04:12;;;;;;;18.50;5.25;;;3.30;99.90;;;;;;5096236;28;20024;-85
2021/12/09 05:06:37;;;;;;;13.93;5.27;;;3.30;99.90;;;;;;5096508;28;20034;-85
2021/12/09 05:09:09;;;;;;;13.27;4.40;;;3.30;99.90;;;;;;5096135;28;20016;-84
2021/12/09 05:14:04;;;;;;;7.77;3.60;;;3.30;99.90;;;;;;5118048;28;20028;-84
2021/12/09 05:16:31;;;;;;;8.77;3.63;;;3.20;99.90;;;;;;5100138;28;20028;-85
2021/12/09 05:18:58;;;;;;;10.23;4.17;;;3.20;99.90;;;;;;5100431;28;20050;-85
2021/12/09 05:21:35;;;;;;;10.73;3.90;;;3.20;99.90;;;;;;5118102;28;20035;-85
2021/12/09 05:24:01;;;;;;;16.90;5.17;;;3.20;99.90;;;;;;5117369;28;20466;-84
2021/12/09 05:26:32;;;;;;;23.07;5.27;;;3.20;99.90;;;;;;5100285;28;20121;-85
2021/12/09 05:28:58;;;;;;;18.63;4.80;;;3.20;99.90;;;;;;5099928;28;20176;-86
2021/12/09 05:34:10;;;;;;;14.40;4.43;;;3.30;99.90;;;;;;5117481;28;20031;-85
2021/12/09 05:36:36;;;;;;;10.03;3.67;;;3.30;99.90;;;;;;5099949;28;20028;-85
2021/12/09 05:39:05;;;;;;;12.30;3.87;;;3.20;99.90;;;;;;5099601;28;20349;-85
2021/12/09 05:41:32;;;;;;;11.80;4.13;;;3.20;99.90;;;;;;5117944;28;20024;-85
2021/12/09 05:44:00;;;;;;;9.03;4.20;;;3.20;99.90;;;;;;5099501;28;20023;-85
2021/12/09 05:46:25;;;;;;;9.97;4.30;;;3.20;99.90;;;;;;5099822;28;20020;-85
2021/12/09 05:48:51;;;;;;;13.40;4.47;;;3.20;99.90;;;;;;5099232;28;20050;-84
2021/12/09 05:51:17;;;;;;;7.80;4.07;;;3.20;99.90;;;;;;5099571;28;20028;-84
2021/12/09 05:53:42;;;;;;;12.33;3.90;;;3.20;99.90;;;;;;5117335;28;20015;-85
2021/12/09 05:56:08;;;;;;;11.33;3.83;;;3.20;99.90;;;;;;5098904;28;20040;-85
2021/12/09 05:58:33;;;;;;;10.07;4.10;;;3.20;99.90;;;;;;5117717;28;20023;-85
2021/12/09 06:00:59;;;;;;;12.00;4.30;;;3.20;99.90;;;;;;5112438;28;20345;-85
2021/12/09 06:03:25;;;;;;;11.77;4.00;;;3.20;99.90;;;;;;5089329;28;20497;-85
2021/12/09 06:05:51;;;;;;;14.33;4.53;;;3.20;99.90;;;;;;5106691;28;20020;-85
2021/12/09 06:08:18;;;;;;;9.90;4.57;;;3.30;99.90;;;;;;5089325;28;20360;-85
2021/12/09 06:10:44;;;;;;;10.63;4.50;;;3.30;99.90;;;;;;5085976;28;20019;-84
2021/12/09 06:13:10;;;;;;;9.63;3.80;;;3.30;99.90;;;;;;5083953;28;20059;-84
2021/12/09 06:15:36;;;;;;;12.83;4.97;;;3.30;99.90;;;;;;5087414;28;20021;-85
2021/12/09 06:18:02;;;;;;;11.70;4.43;;;3.30;99.90;;;;;;5096251;28;20027;-85
2021/12/09 06:20:28;;;;;;;11.83;4.80;;;3.30;99.90;;;;;;5095630;28;20020;-85
2021/12/09 06:22:54;;;;;;;10.20;4.00;;;3.30;99.90;;;;;;5084760;28;20419;-85
2021/12/09 06:25:20;;;;;;;9.27;4.23;;;3.30;99.90;;;;;;5083295;28;20024;-85
2021/12/09 06:27:48;;;;;;;12.37;4.70;;;3.30;99.90;;;;;;5095708;28;20027;-85
2021/12/09 06:30:16;;;;;;;15.57;4.70;;;3.40;99.90;;;;;;5095606;28;20027;-85
2021/12/09 06:32:42;;;;;;;10.90;4.47;;;3.40;99.90;;;;;;5095272;28;20020;-84
2021/12/09 06:35:09;;;;;;;7.80;4.20;;;3.40;99.90;;;;;;5094518;28;20027;-85
2021/12/09 06:37:40;;;;;;;7.20;3.90;;;3.40;99.90;;;;;;5096425;28;20463;-84
2021/12/09 06:40:07;;;;;;;8.73;4.33;;;3.40;99.90;;;;;;5094786;28;20027;-84
2021/12/09 06:42:33;;;;;;;10.37;4.33;;;3.40;99.90;;;;;;5096062;28;20031;-84
2021/12/09 06:44:59;;;;;;;11.30;4.57;;;3.30;99.90;;;;;;5094324;28;20032;-85
2021/12/09 06:47:25;;;;;;;12.93;4.53;;;3.40;99.90;;;;;;5095208;28;20042;-85
2021/12/09 06:49:50;;;;;;;13.40;4.70;;;3.40;99.90;;;;;;5095234;28;20136;-83
2021/12/09 06:52:16;;;;;;;12.40;4.10;;;3.40;99.90;;;;;;5094924;28;20026;-85
2021/12/09 06:54:42;;;;;;;11.37;4.73;;;3.40;99.90;;;;;;5094598;28;20028;-85
2021/12/09 06:57:09;;;;;;;9.70;4.80;;;3.40;99.90;;;;;;5094121;28;20397;-84
2021/12/09 06:59:34;;;;;;;13.17;4.90;;;3.40;99.90;;;;;;5094505;28;20501;-84
2021/12/09 07:02:00;;;;;;;14.73;5.30;;;3.40;99.90;;;;;;5094535;28;20123;-84
2021/12/09 07:04:26;;;;;;;9.43;4.50;;;3.40;99.90;;;;;;5094654;28;20024;-84
2021/12/09 07:06:52;;;;;;;10.77;4.47;;;3.40;99.90;;;;;;5095899;28;20032;-84
2021/12/09 07:09:18;;;;;;;12.27;4.70;;;3.40;99.90;;;;;;5094254;28;20051;-84
2021/12/09 07:11:49;;;;;;;12.07;5.40;;;3.50;99.90;;;;;;5096413;28;20130;-84
2021/12/09 07:14:15;;;;;;;18.33;5.10;;;3.50;99.90;;;;;;5097219;28;20069;-84
2021/12/09 07:16:41;;;;;;;11.67;4.83;;;3.50;99.90;;;;;;5115578;28;20081;-84
2021/12/09 07:19:07;;;;;;;10.90;5.07;;;3.50;99.90;;;;;;5115427;28;20031;-84
2021/12/09 07:21:32;;;;;;;12.03;5.67;;;3.60;99.90;;;;;;5115474;28;20024;-84
2021/12/09 07:23:58;;;;;;;11.97;5.33;;;3.50;99.90;;;;;;5097151;28;20027;-84
2021/12/09 07:26:24;;;;;;;14.90;6.30;;;3.60;99.90;;;;;;5081307;28;20337;-84
2021/12/09 07:28:49;;;;;;;12.90;6.07;;;3.60;99.90;;;;;;5095689;28;20445;-84
2021/12/09 07:31:16;;;;;;;17.73;5.93;;;3.60;99.90;;;;;;5086776;28;20038;-83
2021/12/09 07:33:42;;;;;;;23.10;5.90;;;3.60;99.90;;;;;;5089915;28;20028;-83
2021/12/09 07:36:08;;;;;;;14.90;5.50;;;3.60;99.90;;;;;;5085265;28;20034;-84
2021/12/09 07:38:34;;;;;;;12.67;5.70;;;3.60;99.90;;;;;;5084528;28;20024;-84
2021/12/09 07:41:00;;;;;;;8.93;5.33;;;3.60;99.90;;;;;;5091674;28;20073;-83
2021/12/09 07:43:25;;;;;;;15.27;6.13;;;3.60;99.90;;;;;;5095298;28;20043;-83
2021/12/09 07:45:51;;;;;;;15.27;5.97;;;3.60;99.90;;;;;;5077228;28;20052;-84
2021/12/09 07:48:17;;;;;;;15.90;5.97;;;3.60;99.90;;;;;;5077106;28;20023;-84
2021/12/09 07:50:43;;;;;;;12.40;6.10;;;3.50;99.90;;;;;;5076731;28;20031;-84
2021/12/09 07:53:08;;;;;;;17.40;5.73;;;3.60;99.90;;;;;;5076435;28;20461;-84
2021/12/09 07:55:34;;;;;;;12.97;6.73;;;3.50;99.90;;;;;;5104266;28;20024;-84
2021/12/09 07:58:00;;;;;;;15.37;6.17;;;3.60;99.90;;;;;;5096867;28;20498;-84
2021/12/09 08:00:30;;;;;;;14.60;5.90;;;3.50;99.90;;;;;;5097606;28;20047;-84
2021/12/09 08:02:57;;;;;;;21.93;7.10;;;3.60;99.90;;;;;;5096736;28;20027;-83
2021/12/09 08:05:24;;;;;;;10.83;5.37;;;3.70;99.90;;;;;;5115172;28;20126;-83
2021/12/09 08:07:50;;;;;;;17.43;6.60;;;3.70;99.90;;;;;;5097523;28;20022;-83
2021/12/09 08:10:17;;;;;;;13.63;6.23;;;3.70;99.90;;;;;;5096853;28;20016;-84
2021/12/09 08:12:44;;;;;;;15.57;5.63;;;3.70;99.90;;;;;;5096045;28;20066;-83
2021/12/09 08:15:11;;;;;;;13.70;6.07;;;3.70;99.90;;;;;;5082755;28;20026;-83
2021/12/09 08:20:05;;;;;;;11.07;5.60;;;3.80;99.90;;;;;;5103552;28;20068;-83
2021/12/09 08:22:32;;;;;;;11.87;5.70;;;3.80;99.90;;;;;;5088929;28;20460;-84
2021/12/09 08:24:58;;;;;;;11.27;5.40;;;3.80;99.90;;;;;;5082537;28;20464;-83
2021/12/09 08:27:24;;;;;;;16.93;5.97;;;3.90;99.90;;;;;;5092508;28;20015;-84
2021/12/09 08:29:50;;;;;;;14.10;6.07;;;3.90;99.90;;;;;;5076198;28;20027;-84
2021/12/09 08:32:15;;;;;;;15.30;5.77;;;3.90;99.90;;;;;;5103814;28;20144;-84
2021/12/09 08:34:41;;;;;;;14.73;5.63;;;3.90;99.90;;;;;;5081152;28;20032;-83
2021/12/09 08:37:07;;;;;;;12.30;5.40;;;3.90;99.90;;;;;;5092035;28;20057;-83
2021/12/09 08:39:33;;;;;;;14.03;6.17;;;3.90;99.90;;;;;;5099471;28;20015;-84
2021/12/09 08:41:58;;;;;;;12.77;5.40;;;3.90;99.90;;;;;;5103987;28;20027;-84
2021/12/09 08:44:24;;;;;;;14.00;6.07;;;3.80;99.90;;;;;;5089526;28;20034;-84
2021/12/09 08:46:50;;;;;;;12.90;5.60;;;3.80;99.90;;;;;;5095430;28;20544;-84
2021/12/09 08:49:16;;;;;;;12.00;5.17;;;3.80;99.90;;;;;;5092596;28;20480;-84
2021/12/09 08:51:43;;;;;;;13.17;5.43;;;3.80;99.90;;;;;;5082470;28;20020;-84
2021/12/09 08:54:08;;;;;;;14.50;5.33;;;3.70;99.90;;;;;;5084815;28;20082;-84
2021/12/09 08:56:36;;;;;;;13.20;5.10;;;3.70;99.90;;;;;;5092843;28;20475;-84
2021/12/09 08:59:04;;;;;;;10.37;5.10;;;3.80;99.90;;;;;;5078589;28;20024;-83
2021/12/09 09:01:31;;;;;;;8.37;4.70;;;3.80;99.90;;;;;;5113818;28;20023;-84
2021/12/09 09:03:56;;;;;;;15.27;5.50;;;3.80;99.90;;;;;;5094955;28;20488;-82
2021/12/09 09:06:22;;;;;;;10.73;5.37;;;3.70;99.90;;;;;;5095736;28;20196;-84
2021/12/09 09:08:51;;;;;;;11.53;5.10;;;3.80;99.90;;;;;;5095398;28;20475;-84
2021/12/09 09:11:17;;;;;;;12.07;5.07;;;3.80;99.90;;;;;;5095406;28;20177;-83
2021/12/09 09:13:43;;;;;;;9.97;5.13;;;3.80;99.90;;;;;;5088414;28;20044;-83
2021/12/09 09:16:09;;;;;;;9.40;5.00;;;3.80;99.90;;;;;;5086901;28;20498;-83
2021/12/09 09:18:35;;;;;;;14.53;5.50;;;3.90;99.90;;;;;;5085947;28;20024;-84
2021/12/09 09:21:00;;;;;;;9.67;5.13;;;3.90;99.90;;;;;;5080387;28;20107;-83
2021/12/09 09:23:26;;;;;;;9.70;4.97;;;3.90;99.90;;;;;;5087879;28;20019;-83
2021/12/09 09:25:52;;;;;;;10.20;5.10;;;4.00;99.90;;;;;;5095632;28;20051;-83
2021/12/09 09:28:19;;;;;;;12.63;5.13;;;4.00;99.90;;;;;;5088349;28;20019;-83
2021/12/09 09:30:53;;;;;;;12.93;5.30;;;4.10;99.90;;;;;;5113664;28;20027;-84
2021/12/09 09:33:21;;;;;;;10.87;5.27;;;4.10;99.90;;;;;;5096341;28;20023;-84
2021/12/09 09:35:47;;;;;;;14.20;4.80;;;4.10;99.90;;;;;;5094239;28;20034;-83
2021/12/09 09:38:14;;;;;;;11.63;5.13;;;4.10;99.90;;;;;;5113070;28;20023;-83
2021/12/09 09:41:04;;;;;;;10.37;4.37;;;4.10;99.90;;;;;;5095473;28;20024;-84
2021/12/09 09:46:15;;;;;;;11.15;4.60;;;4.20;99.90;;;;;;5112639;28;20466;-85
2021/12/09 09:48:44;;;;;;;13.70;4.30;;;4.20;99.90;;;;;;5113734;28;20430;-85
2021/12/09 09:51:10;;;;;;;10.30;4.70;;;4.30;99.90;;;;;;5110749;28;20031;-85
2021/12/09 09:53:38;;;;;;;8.03;3.90;;;4.30;99.90;;;;;;5075233;28;20119;-84
2021/12/09 09:56:13;;;;;;;9.87;4.10;;;4.30;99.90;;;;;;5087664;28;20032;-84
2021/12/09 09:58:47;;;;;;;10.20;4.37;;;4.30;99.90;;;;;;5098211;28;20028;-83
2021/12/09 10:01:14;;;;;;;10.87;3.97;;;4.30;99.90;;;;;;5081382;28;20027;-84
2021/12/09 10:03:44;;;;;;;8.80;4.27;;;4.30;99.90;;;;;;5110775;28;20073;-84
2021/12/09 10:06:11;;;;;;;9.50;4.37;;;4.30;99.90;;;;;;5087818;28;20035;-84
2021/12/09 10:08:38;;;;;;;9.87;4.23;;;4.30;99.90;;;;;;5102620;28;20020;-85
2021/12/09 10:11:05;;;;;;;14.27;4.27;;;4.30;99.90;;;;;;5094748;28;20059;-84
2021/12/09 10:13:36;;;;;;;11.03;4.53;;;4.30;99.90;;;;;;5100842;28;20051;-86
2021/12/09 10:16:05;;;;;;;12.15;4.32;;;4.30;99.90;;;;;;5086902;28;20035;-86
2021/12/09 10:18:38;;;;;;;14.47;4.53;;;4.30;99.90;;;;;;5078369;28;20036;-84
2021/12/09 10:21:06;;;;;;;10.23;4.33;;;4.30;99.90;;;;;;5104563;28;20035;-84
2021/12/09 10:23:34;;;;;;;10.50;4.27;;;4.20;99.90;;;;;;5083334;28;20028;-85
2021/12/09 10:26:37;;;;;;;11.83;4.63;;;4.30;99.90;;;;;;5108516;28;20038;-85
2021/12/09 10:29:32;;;;;;;13.07;6.10;;;4.30;99.90;;;;;;5000466;28;20050;-84
2021/12/09 10:32:01;;;;;;;10.53;5.10;;;4.20;99.90;;;;;;5085566;28;20119;-84
2021/12/09 10:34:43;;;;;;;13.43;5.23;;;4.30;99.90;;;;;;5089799;28;20024;-84
2021/12/09 10:37:09;;;;;;;9.45;3.47;;;4.30;99.90;;;;;;5088599;28;20039;-85
2021/12/09 10:39:42;;;;;;;12.53;4.03;;;4.30;99.90;;;;;;5075511;28;20032;-85
2021/12/09 10:42:14;;;;;;;15.37;4.43;;;4.30;99.90;;;;;;5075067;28;20082;-85
2021/12/09 10:44:42;;;;;;;10.60;4.40;;;4.20;99.90;;;;;;5080073;28;20456;-85
2021/12/09 10:47:14;;;;;;;9.83;4.50;;;4.20;99.90;;;;;;5076903;28;20031;-84
2021/12/09 10:49:54;;;;;;;11.50;4.38;;;4.20;99.90;;;;;;5077716;28;20035;-83
2021/12/09 10:52:37;;;;;;;12.10;4.23;;;4.20;99.90;;;;;;5086396;28;20038;-84
2021/12/09 10:55:13;;;;;;;12.00;4.03;;;4.20;99.90;;;;;;5088583;28;20063;-84
2021/12/09 10:57:40;;;;;;;10.90;4.30;;;4.30;99.90;;;;;;5098871;28;20083;-84
2021/12/09 11:00:14;;;;;;;8.90;3.70;;;4.20;99.90;;;;;;5083860;28;20031;-85
2021/12/09 11:03:08;;;;;;;9.03;3.83;;;4.30;99.90;;;;;;5111417;28;20422;-84
2021/12/09 11:05:37;;;;;;;12.70;3.83;;;4.30;99.90;;;;;;5092340;28;20039;-84
2021/12/09 11:08:45;;;;;;;11.43;3.50;;;4.30;99.90;;;;;;5096223;28;20476;-81
2021/12/09 11:11:17;;;;;;;7.13;3.33;;;4.30;99.90;;;;;;4990764;28;20026;-84
2021/12/09 11:13:56;;;;;;;8.97;3.43;;;4.40;99.90;;;;;;5051329;28;20044;-84
2021/12/09 11:16:31;;;;;;;11.47;3.63;;;4.30;99.90;;;;;;5057394;28;20024;-84
2021/12/09 11:19:30;;;;;;;6.23;3.23;;;4.40;99.90;;;;;;5057638;28;20421;-83
2021/12/09 11:22:06;;;;;;;5.93;2.93;;;4.40;99.90;;;;;;5059346;28;20029;-83
2021/12/09 11:24:37;;;;;;;9.37;3.40;;;4.50;99.90;;;;;;5077140;28;20062;-83
2021/12/09 11:27:13;;;;;;;8.77;2.87;;;4.50;99.90;;;;;;5095060;28;20028;-82
2021/12/09 11:29:47;;;;;;;9.83;3.13;;;4.50;99.90;;;;;;5075916;28;20024;-83
2021/12/09 11:32:34;;;;;;;8.93;3.07;;;4.60;99.90;;;;;;5094989;28;20012;-82
2021/12/09 11:35:14;;;;;;;3.83;2.53;;;4.60;99.90;;;;;;5094756;28;20027;-83
2021/12/09 11:37:49;;;;;;;8.40;3.00;;;4.60;99.90;;;;;;5062097;28;20028;-83
2021/12/09 11:40:28;;;;;;;8.73;2.93;;;4.60;99.90;;;;;;5067090;28;20126;-82
2021/12/09 11:42:58;;;;;;;10.30;2.63;;;4.70;99.90;;;;;;5062290;28;20338;-83
2021/12/09 11:45:39;;;;;;;10.53;3.30;;;4.70;99.90;;;;;;5092957;28;20065;-83
2021/12/09 11:48:06;;;;;;;5.27;2.13;;;4.70;99.90;;;;;;5085108;28;20028;-83
2021/12/09 11:50:39;;;;;;;12.00;3.50;;;4.70;99.90;;;;;;5064015;28;20265;-83
2021/12/09 11:53:08;;;;;;;9.10;2.60;;;4.70;99.90;;;;;;5059160;28;20036;-83
2021/12/09 11:55:40;;;;;;;7.07;2.77;;;4.70;99.90;;;;;;5088175;28;20112;-84
2021/12/09 11:58:21;;;;;;;8.82;2.90;;;4.70;99.90;;;;;;5056279;28;20436;-83
2021/12/09 12:11:59;;;;;;;7.70;3.10;;;4.80;99.90;;;;;;5081233;28;20537;-83
2021/12/09 12:14:39;;;;;;;7.93;3.20;;;4.80;99.90;;;;;;5084203;28;20024;-83
2021/12/09 12:17:43;;;;;;;7.93;2.83;;;4.80;99.90;;;;;;5087770;28;20108;-83
2021/12/09 12:25:43;;;;;;;10.40;2.50;;;4.90;99.90;;;;;;5096627;28;20574;-83
2021/12/09 12:28:53;;;;;;;10.23;2.50;;;4.90;99.90;;;;;;5080162;28;20023;-83
2021/12/09 12:34:53;;;;;;;8.57;1.97;;;4.90;99.90;;;;;;5095939;28;20030;-83
2021/12/09 12:39:59;;;;;;;6.60;2.00;;;4.90;99.90;;;;;;5108788;28;20038;-83
2021/12/09 12:42:37;;;;;;;8.50;2.33;;;4.90;99.90;;;;;;5102526;28;20426;-83
2021/12/09 12:45:17;;;;;;;7.57;2.00;;;4.90;99.90;;;;;;5105033;28;20049;-84
2021/12/09 12:47:52;;;;;;;9.43;2.13;;;5.00;99.90;;;;;;5094615;28;20023;-83
2021/12/09 12:50:18;;;;;;;8.23;2.20;;;4.90;99.90;;;;;;5084609;28;20586;-83
2021/12/09 12:52:45;;;;;;;11.63;2.00;;;4.90;99.90;;;;;;5085147;28;20050;-83
2021/12/09 12:55:20;;;;;;;7.73;2.17;;;5.00;99.90;;;;;;5082909;28;20027;-83
2021/12/09 12:57:51;;;;;;;8.67;1.80;;;5.00;99.90;;;;;;5107584;28;20027;-83
2021/12/09 13:00:23;;;;;;;9.10;1.90;;;5.10;99.90;;;;;;5098963;28;20024;-84
2021/12/09 13:03:20;;;;;;;10.10;2.30;;;5.10;99.90;;;;;;5098245;28;20027;-83
2021/12/09 13:05:59;;;;;;;11.57;2.00;;;5.10;99.90;;;;;;5106390;28;20099;-84
2021/12/09 13:11:16;;;;;;;6.77;1.70;;;5.20;99.90;;;;;;5108258;28;20031;-83
2021/12/09 13:13:57;;;;;;;7.97;2.10;;;5.30;99.90;;;;;;5095672;28;20529;-83
2021/12/09 13:16:38;;;;;;;6.22;1.38;;;5.30;99.90;;;;;;5094424;28;20055;-84
2021/12/09 13:19:39;;;;;;;6.50;1.43;;;5.30;99.90;;;;;;5113118;28;20111;-83
2021/12/09 13:22:11;;;;;;;7.53;1.80;;;5.20;99.90;;;;;;5095593;28;20259;-83
2021/12/09 13:27:38;;;;;;;7.73;2.00;;;5.10;99.90;;;;;;5113486;28;20460;-83
2021/12/09 13:33:15;;;;;;;10.70;1.93;;;5.20;99.90;;;;;;5107379;28;20034;-83
2021/12/09 13:36:04;;;;;;;6.75;1.63;;;5.10;99.90;;;;;;5083687;28;20105;-83
2021/12/09 13:47:25;;;;;;;8.73;1.77;;;5.30;99.90;;;;;;5112761;28;20477;-83
2021/12/09 13:55:25;;;;;;;10.77;1.75;;;5.30;99.90;;;;;;5103829;28;20023;-83